createdAt,value
2022-10-21T00:00:01.382Z,13.17
2022-10-21T00:03:02.928Z,13.80
2022-10-21T00:06:05.270Z,14.73
2022-10-21T00:09:06.938Z,13.10
2022-10-21T00:12:08.597Z,12.87
2022-10-21T00:15:10.993Z,13.03
2022-10-21T00:18:12.561Z,16.23
2022-10-21T00:21:15.661Z,12.87
2022-10-21T00:24:17.222Z,12.10
2022-10-21T00:27:18.786Z,15.53
2022-10-21T00:30:20.444Z,14.40
2022-10-21T00:33:22.130Z,13.30
2022-10-21T00:36:23.791Z,14.10
2022-10-21T00:39:25.383Z,15.27
2022-10-21T00:42:32.148Z,14.33
2022-10-21T00:45:33.789Z,16.67
2022-10-21T00:48:45.141Z,14.17
2022-10-21T00:51:48.267Z,13.57
2022-10-21T00:54:52.433Z,15.07
2022-10-21T00:57:54.911Z,17.03
2022-10-21T01:00:57.442Z,16.57
2022-10-21T01:04:01.286Z,15.97
2022-10-21T01:07:03.170Z,15.53
2022-10-21T01:10:05.370Z,16.40
2022-10-21T01:13:15.230Z,18.60
2022-10-21T01:16:33.618Z,17.90
2022-10-21T01:19:38.025Z,17.33
2022-10-21T01:22:42.394Z,14.97
2022-10-21T01:25:43.992Z,19.07
2022-10-21T01:28:58.811Z,16.77
2022-10-21T01:32:00.363Z,17.90
2022-10-21T01:35:05.134Z,15.10
2022-10-21T01:38:12.685Z,15.37
2022-10-21T01:41:19.830Z,18.40
2022-10-21T01:44:27.600Z,17.83
2022-10-21T01:47:32.458Z,16.87
2022-10-21T01:50:37.788Z,17.70
2022-10-21T01:53:43.967Z,16.33
2022-10-21T01:56:45.770Z,16.07
2022-10-21T01:59:47.826Z,16.13
2022-10-21T02:02:49.837Z,16.97
2022-10-21T02:05:51.497Z,16.57
2022-10-21T02:08:53.214Z,16.20
2022-10-21T02:12:01.095Z,17.60
2022-10-21T02:15:03.441Z,18.17
2022-10-21T02:18:06.529Z,17.97
2022-10-21T02:21:10.377Z,19.40
2022-10-21T02:24:15.658Z,18.70
2022-10-21T02:27:17.503Z,18.60
2022-10-21T02:30:19.582Z,17.43
2022-10-21T02:33:27.681Z,23.67
2022-10-21T02:36:35.135Z,18.00
2022-10-21T02:40:02.901Z,21.53
2022-10-21T02:43:16.446Z,20.53
2022-10-21T02:46:18.058Z,21.87
2022-10-21T02:49:19.979Z,24.27
2022-10-21T02:52:24.434Z,23.20
2022-10-21T02:55:26.296Z,33.37
2022-10-21T02:58:28.081Z,37.73
2022-10-21T03:01:29.730Z,36.87
2022-10-21T03:04:31.358Z,30.33
2022-10-21T03:07:42.103Z,15.23
2022-10-21T03:10:48.030Z,16.50
2022-10-21T03:13:54.872Z,20.50
2022-10-21T03:16:56.830Z,15.17
2022-10-21T03:20:01.273Z,18.67
2022-10-21T03:23:02.886Z,19.03
2022-10-21T03:26:04.601Z,15.60
2022-10-21T03:29:06.221Z,17.87
2022-10-21T03:32:08.521Z,15.20
2022-10-21T03:35:10.235Z,16.93
2022-10-21T03:38:11.834Z,17.93
2022-10-21T03:41:13.387Z,17.53
2022-10-21T03:44:14.946Z,17.17
2022-10-21T03:47:16.563Z,18.27
2022-10-21T03:50:23.571Z,21.43
2022-10-21T03:53:42.241Z,22.47
2022-10-21T03:56:45.469Z,23.13
2022-10-21T03:59:47.163Z,21.50
2022-10-21T04:02:48.990Z,25.27
2022-10-21T04:05:50.595Z,21.83
2022-10-21T04:08:52.468Z,24.40
2022-10-21T04:11:54.094Z,22.10
2022-10-21T04:14:58.507Z,25.13
2022-10-21T04:18:00.124Z,22.83
2022-10-21T04:21:01.780Z,20.63
2022-10-21T04:24:03.434Z,35.00
2022-10-21T04:27:05.083Z,23.67
2022-10-21T04:30:09.911Z,22.10
2022-10-21T04:33:11.493Z,24.03
2022-10-21T04:36:13.047Z,16.13
2022-10-21T04:39:14.621Z,17.27
2022-10-21T04:42:16.292Z,21.03
2022-10-21T04:45:18.305Z,24.53
2022-10-21T04:48:20.528Z,20.67
2022-10-21T04:51:22.135Z,18.87
2022-10-21T04:54:23.829Z,20.67
2022-10-21T04:57:25.661Z,20.50
2022-10-21T05:00:27.276Z,24.20
2022-10-21T05:03:28.846Z,25.23
2022-10-21T05:06:30.486Z,23.23
2022-10-21T05:09:32.050Z,19.33
2022-10-21T05:15:40.180Z,24.43
2022-10-21T05:18:41.933Z,29.50
2022-10-21T05:21:43.866Z,20.97
2022-10-21T05:24:45.417Z,22.07
2022-10-21T05:27:47.098Z,21.13
2022-10-21T05:30:48.749Z,23.10
2022-10-21T05:33:50.306Z,20.90
2022-10-21T05:36:51.855Z,25.90
2022-10-21T05:39:53.367Z,20.87
2022-10-21T05:42:54.995Z,22.50
2022-10-21T05:45:57.034Z,20.47
2022-10-21T05:48:58.678Z,27.20
2022-10-21T05:52:00.351Z,23.03
2022-10-21T05:55:01.963Z,19.87
2022-10-21T05:58:03.744Z,22.93
2022-10-21T06:01:05.393Z,28.50
2022-10-21T06:04:07.509Z,26.30
2022-10-21T06:07:09.086Z,27.10
2022-10-21T06:10:12.190Z,27.00
2022-10-21T06:13:13.742Z,23.03
2022-10-21T06:16:15.567Z,25.47
2022-10-21T06:19:17.218Z,20.03
2022-10-21T06:22:18.766Z,24.83
2022-10-21T06:25:21.446Z,27.27
2022-10-21T06:28:23.072Z,30.13
2022-10-21T06:31:24.680Z,27.47
2022-10-21T06:34:26.330Z,29.47
2022-10-21T06:37:27.926Z,25.13
2022-10-21T06:40:29.810Z,28.20
2022-10-21T06:43:31.566Z,24.53
2022-10-21T06:46:33.226Z,26.90
2022-10-21T06:49:34.794Z,18.53
2022-10-21T06:52:36.427Z,26.93
2022-10-21T06:55:37.986Z,23.57
2022-10-21T06:58:43.171Z,23.77
2022-10-21T07:02:01.106Z,19.27
2022-10-21T07:05:04.712Z,14.17
2022-10-21T07:08:10.547Z,16.13
2022-10-21T07:11:14.327Z,15.63
2022-10-21T07:14:16.007Z,13.57
2022-10-21T07:17:17.899Z,16.77
2022-10-21T07:20:19.521Z,13.00
2022-10-21T07:23:21.169Z,14.23
2022-10-21T07:26:23.446Z,12.47
2022-10-21T07:29:24.991Z,13.77
2022-10-21T07:32:26.539Z,10.93
2022-10-21T07:35:28.168Z,14.63
2022-10-21T07:38:29.733Z,12.32
2022-10-21T07:41:32.958Z,14.65
2022-10-21T07:44:34.654Z,13.60
2022-10-21T07:47:36.536Z,20.13
2022-10-21T07:50:38.300Z,15.40
2022-10-21T07:53:40.345Z,19.47
2022-10-21T07:56:44.252Z,22.80
2022-10-21T07:59:45.793Z,343.73
2022-10-21T08:02:47.398Z,188.10
2022-10-21T08:05:49.102Z,43.28
2022-10-21T08:08:51.039Z,223.73
2022-10-21T08:11:52.623Z,81.25
2022-10-21T08:14:54.288Z,62.33
2022-10-21T08:17:55.832Z,42.53
2022-10-21T08:20:57.367Z,53.50
2022-10-21T08:23:59.636Z,32.20
2022-10-21T08:27:01.182Z,33.35
2022-10-21T08:30:02.755Z,59.63
2022-10-21T08:33:04.476Z,47.65
2022-10-21T08:36:06.948Z,11.23
2022-10-21T08:39:08.583Z,6.00
2022-10-21T08:42:17.573Z,6.18
2022-10-21T08:45:33.752Z,9.38
2022-10-21T08:48:56.542Z,8.82
2022-10-21T08:52:03.525Z,7.20
2022-10-21T08:55:06.671Z,7.07
2022-10-21T08:58:23.801Z,11.05
2022-10-21T09:01:28.422Z,7.85
2022-10-21T09:04:50.314Z,7.38
2022-10-21T09:08:10.404Z,8.38
2022-10-21T09:11:31.386Z,9.65
2022-10-21T09:14:51.886Z,11.85
2022-10-21T09:18:02.886Z,13.93
2022-10-21T09:21:05.848Z,8.05
2022-10-21T09:24:11.479Z,6.03
2022-10-21T09:27:13.148Z,7.75
2022-10-21T09:30:16.808Z,5.68
2022-10-21T09:33:26.732Z,6.60
2022-10-21T09:36:38.701Z,4.75
2022-10-21T09:39:42.632Z,7.23
2022-10-21T09:42:48.510Z,8.43
2022-10-21T09:45:50.439Z,8.30
2022-10-21T09:49:36.710Z,4.93
2022-10-21T09:52:15.167Z,7.73
2022-10-21T09:55:16.965Z,5.93
2022-10-21T09:58:44.729Z,5.87
2022-10-21T10:01:46.704Z,8.27
2022-10-21T10:04:48.377Z,8.33
2022-10-21T10:07:50.071Z,7.83
2022-10-21T10:10:51.627Z,7.73
2022-10-21T10:13:53.381Z,5.37
2022-10-21T10:16:55.190Z,7.57
2022-10-21T10:20:16.879Z,5.10
2022-10-21T10:23:19.352Z,6.97
2022-10-21T10:26:34.385Z,8.73
2022-10-21T10:29:37.344Z,7.67
2022-10-21T10:32:39.164Z,6.20
2022-10-21T10:35:47.234Z,6.30
2022-10-21T10:38:53.666Z,4.73
2022-10-21T10:42:00.774Z,4.83
2022-10-21T10:45:06.806Z,7.53
2022-10-21T10:48:31.644Z,5.63
2022-10-21T10:51:37.248Z,5.30
2022-10-21T10:54:40.412Z,5.37
2022-10-21T10:57:59.090Z,6.53
2022-10-21T11:01:13.079Z,5.63
2022-10-21T11:04:38.142Z,6.23
2022-10-21T11:07:54.759Z,5.33
2022-10-21T11:10:59.462Z,5.87
2022-10-21T11:14:01.134Z,5.73
2022-10-21T11:17:16.734Z,4.83
2022-10-21T11:20:27.236Z,9.10
2022-10-21T11:23:35.070Z,8.70
2022-10-21T11:26:42.590Z,5.60
2022-10-21T11:29:44.176Z,7.10
2022-10-21T11:32:53.605Z,9.83
2022-10-21T11:35:58.460Z,5.07
2022-10-21T11:39:03.130Z,8.97
2022-10-21T11:42:07.414Z,9.30
2022-10-21T11:45:11.896Z,5.90
2022-10-21T11:48:16.417Z,5.23
2022-10-21T11:51:33.271Z,4.83
2022-10-21T11:55:09.304Z,7.33
2022-10-21T11:58:17.802Z,5.57
2022-10-21T12:01:24.118Z,6.40
2022-10-21T12:04:40.801Z,5.10
2022-10-21T12:08:11.931Z,7.60
2022-10-21T12:11:15.442Z,5.90
2022-10-21T12:14:19.879Z,7.43
2022-10-21T12:17:22.121Z,6.70
2022-10-21T12:20:26.866Z,5.40
2022-10-21T12:23:29.860Z,4.33
2022-10-21T12:26:42.648Z,5.27
2022-10-21T12:29:52.090Z,6.37
2022-10-21T12:33:06.555Z,7.57
2022-10-21T12:36:16.357Z,5.27
2022-10-21T12:39:33.219Z,5.60
2022-10-21T12:42:34.854Z,8.47
2022-10-21T12:45:38.074Z,5.40
2022-10-21T12:48:48.645Z,6.33
2022-10-21T12:51:52.706Z,7.23
2022-10-21T12:54:59.744Z,9.47
2022-10-21T12:58:02.868Z,7.97
2022-10-21T13:01:05.614Z,6.37
2022-10-21T13:04:30.240Z,5.97
2022-10-21T13:07:32.903Z,6.00
2022-10-21T13:10:34.593Z,8.47
2022-10-21T13:13:46.275Z,10.27
2022-10-21T13:16:48.033Z,7.60
2022-10-21T13:19:57.161Z,10.80
2022-10-21T13:23:18.757Z,6.43
2022-10-21T13:26:22.331Z,8.13
2022-10-21T13:29:24.203Z,5.63
2022-10-21T13:32:25.825Z,5.70
2022-10-21T13:35:36.792Z,7.97
2022-10-21T13:38:46.719Z,6.03
2022-10-21T13:41:55.550Z,5.50
2022-10-21T13:45:00.236Z,9.43
2022-10-21T13:48:03.341Z,6.77
2022-10-21T13:51:19.151Z,4.83
2022-10-21T13:54:21.031Z,6.03
2022-10-21T13:57:22.654Z,6.07
2022-10-21T14:00:31.425Z,7.80
2022-10-21T14:03:33.037Z,9.20
2022-10-21T14:06:37.126Z,5.53
2022-10-21T14:09:40.727Z,7.13
2022-10-21T14:12:44.053Z,18.20
2022-10-21T14:15:45.677Z,8.33
2022-10-21T14:18:48.209Z,18.60
2022-10-21T14:21:52.479Z,8.13
2022-10-21T14:24:56.765Z,6.37
2022-10-21T14:27:59.323Z,9.97
2022-10-21T14:31:01.475Z,11.80
2022-10-21T14:34:07.233Z,15.30
2022-10-21T14:37:12.165Z,14.40
2022-10-21T14:40:32.630Z,12.13
2022-10-21T14:43:37.246Z,17.60
2022-10-21T14:46:46.382Z,15.70
2022-10-21T14:49:49.512Z,12.57
2022-10-21T14:52:52.278Z,12.43
2022-10-21T14:55:56.089Z,12.33
2022-10-21T14:58:59.173Z,20.10
2022-10-21T15:02:01.175Z,14.30
2022-10-21T15:05:22.738Z,15.57
2022-10-21T15:08:26.239Z,16.17
2022-10-21T15:11:28.979Z,15.97
2022-10-21T15:14:32.019Z,19.47
2022-10-21T15:17:33.693Z,20.30
2022-10-21T15:20:35.354Z,62.37
2022-10-21T15:23:36.926Z,38.93
2022-10-21T15:26:40.501Z,24.77
2022-10-21T15:29:45.905Z,32.40
2022-10-21T15:32:47.828Z,40.07
2022-10-21T15:36:05.908Z,23.13
2022-10-21T15:39:09.310Z,37.20
2022-10-21T15:42:12.063Z,42.73
2022-10-21T15:45:14.818Z,50.57
2022-10-21T15:48:16.502Z,47.20
2022-10-21T15:51:18.757Z,66.13
2022-10-21T15:54:20.773Z,89.63
2022-10-21T15:57:22.774Z,54.00
2022-10-21T16:00:24.377Z,36.60
2022-10-21T16:03:28.082Z,36.20
2022-10-21T16:06:29.853Z,38.60
2022-10-21T16:09:31.406Z,36.20
2022-10-21T16:12:33.075Z,49.03
2022-10-21T16:15:34.625Z,41.27
2022-10-21T16:18:36.181Z,36.27
2022-10-21T16:21:37.897Z,42.10
2022-10-21T16:24:39.483Z,34.50
2022-10-21T16:27:55.737Z,31.60
2022-10-21T16:30:59.221Z,27.40
2022-10-21T16:34:00.878Z,32.93
2022-10-21T16:37:02.457Z,33.23
2022-10-21T16:40:12.661Z,31.67
2022-10-21T16:43:16.225Z,34.30
2022-10-21T16:46:22.626Z,39.70
2022-10-21T16:49:27.901Z,37.87
2022-10-21T16:52:29.678Z,37.67
2022-10-21T16:55:31.221Z,42.67
2022-10-21T16:58:32.851Z,40.77
2022-10-21T17:01:34.704Z,42.83
2022-10-21T17:04:36.281Z,41.37
2022-10-21T17:07:38.310Z,39.40
2022-10-21T17:10:40.163Z,44.63
2022-10-21T17:13:42.569Z,44.40
2022-10-21T17:16:45.385Z,42.27
2022-10-21T17:19:47.270Z,41.43
2022-10-21T17:22:48.922Z,37.73
2022-10-21T17:25:50.572Z,42.37
2022-10-21T17:28:52.297Z,41.53
2022-10-21T17:31:53.932Z,49.40
2022-10-21T17:34:55.787Z,52.87
2022-10-21T17:37:57.410Z,85.20
2022-10-21T17:40:59.070Z,61.23
2022-10-21T17:44:01.950Z,58.17
2022-10-21T17:47:03.610Z,116.73
2022-10-21T17:50:05.443Z,79.20
2022-10-21T17:53:07.111Z,99.03
2022-10-21T17:56:08.729Z,93.80
2022-10-21T17:59:10.911Z,53.13
2022-10-21T18:02:13.090Z,57.30
2022-10-21T18:05:15.064Z,72.77
2022-10-21T18:08:16.689Z,46.20
2022-10-21T18:11:19.936Z,41.80
2022-10-21T18:14:21.554Z,43.00
2022-10-21T18:17:23.234Z,44.20
2022-10-21T18:20:24.913Z,30.03
2022-10-21T18:23:26.487Z,35.27
2022-10-21T18:26:29.608Z,38.37
2022-10-21T18:29:31.261Z,36.00
2022-10-21T18:32:33.112Z,30.87
2022-10-21T18:35:34.699Z,34.10
2022-10-21T18:38:36.395Z,38.90
2022-10-21T18:41:38.649Z,39.40
2022-10-21T18:44:40.315Z,41.23
2022-10-21T18:47:47.149Z,39.27
2022-10-21T18:50:48.787Z,36.97
2022-10-21T18:53:52.826Z,34.80
2022-10-21T18:56:55.042Z,40.57
2022-10-21T18:59:56.693Z,44.07
2022-10-21T19:02:58.256Z,44.40
2022-10-21T19:06:16.768Z,35.30
2022-10-21T19:09:19.925Z,35.47
2022-10-21T19:12:23.565Z,34.43
2022-10-21T19:15:25.472Z,36.60
2022-10-21T19:18:27.600Z,38.27
2022-10-21T19:21:29.142Z,32.33
2022-10-21T19:24:30.836Z,40.60
2022-10-21T19:27:32.450Z,40.40
2022-10-21T19:30:34.553Z,36.47
2022-10-21T19:33:36.121Z,34.80
2022-10-21T19:36:37.736Z,34.77
2022-10-21T19:39:39.614Z,34.67
2022-10-21T19:42:41.908Z,40.60
2022-10-21T19:45:43.891Z,38.37
2022-10-21T19:48:45.947Z,36.40
2022-10-21T19:51:47.576Z,40.57
2022-10-21T19:54:49.403Z,36.97
2022-10-21T19:57:50.974Z,32.63
2022-10-21T20:01:00.185Z,36.73
2022-10-21T20:04:02.338Z,37.37
2022-10-21T20:07:03.995Z,33.53
2022-10-21T20:10:05.981Z,38.93
2022-10-21T20:13:07.550Z,33.43
2022-10-21T20:16:13.999Z,33.87
2022-10-21T20:19:15.703Z,36.00
2022-10-21T20:22:17.449Z,26.87
2022-10-21T20:25:18.988Z,29.50
2022-10-21T20:28:20.615Z,25.67
2022-10-21T20:31:22.178Z,29.03
2022-10-21T20:34:24.298Z,30.50
2022-10-21T20:37:25.885Z,32.43
2022-10-21T20:40:27.561Z,30.40
2022-10-21T20:43:29.774Z,31.87
2022-10-21T20:46:35.157Z,35.07
2022-10-21T20:49:36.924Z,34.37
2022-10-21T20:52:38.662Z,34.33
2022-10-21T20:55:52.592Z,33.50
2022-10-21T20:58:54.224Z,30.93
2022-10-21T21:01:55.800Z,28.40
2022-10-21T21:04:57.461Z,32.13
2022-10-21T21:07:59.005Z,34.20
2022-10-21T21:11:01.333Z,37.37
2022-10-21T21:14:02.890Z,37.37
2022-10-21T21:17:04.816Z,31.43
2022-10-21T21:20:06.793Z,26.13
2022-10-21T21:23:08.408Z,34.33
2022-10-21T21:26:14.335Z,32.13
2022-10-21T21:29:15.981Z,30.13
2022-10-21T21:32:19.000Z,29.40
2022-10-21T21:35:20.568Z,27.53
2022-10-21T21:38:22.865Z,28.60
2022-10-21T21:41:25.155Z,28.87
2022-10-21T21:44:26.777Z,29.70
2022-10-21T21:47:28.423Z,29.03
2022-10-21T21:50:30.084Z,25.33
2022-10-21T21:53:31.781Z,26.17
2022-10-21T21:56:34.553Z,25.07
2022-10-21T21:59:36.141Z,26.63
2022-10-21T22:02:37.733Z,21.33
2022-10-21T22:05:39.331Z,22.37
2022-10-21T22:08:42.126Z,27.93
2022-10-21T22:11:43.795Z,21.97
2022-10-21T22:14:45.434Z,20.40
2022-10-21T22:17:48.578Z,23.57
2022-10-21T22:20:50.107Z,18.40
2022-10-21T22:23:51.836Z,17.00
2022-10-21T22:26:53.462Z,20.77
2022-10-21T22:29:55.093Z,15.73
2022-10-21T22:32:56.744Z,16.43
2022-10-21T22:35:58.419Z,15.20
2022-10-21T22:39:00.050Z,15.30
2022-10-21T22:42:02.106Z,16.43
2022-10-21T22:45:03.939Z,16.30
2022-10-21T22:48:05.509Z,15.63
2022-10-21T22:51:07.104Z,21.90
2022-10-21T22:54:19.060Z,14.17
2022-10-21T22:57:21.026Z,21.40
2022-10-21T23:00:22.715Z,18.50
2022-10-21T23:03:24.350Z,18.83
2022-10-21T23:06:25.998Z,17.30
2022-10-21T23:09:27.597Z,17.33
2022-10-21T23:12:29.109Z,15.80
2022-10-21T23:15:30.777Z,15.73
2022-10-21T23:18:32.379Z,14.23
2022-10-21T23:21:34.314Z,14.50
2022-10-21T23:24:35.961Z,18.90
2022-10-21T23:27:37.526Z,20.13
2022-10-21T23:30:39.226Z,15.10
2022-10-21T23:33:40.909Z,16.77
2022-10-21T23:36:42.517Z,21.67
2022-10-21T23:39:44.148Z,14.67
2022-10-21T23:42:45.805Z,16.83
2022-10-21T23:45:48.859Z,15.17
2022-10-21T23:48:50.422Z,17.20
2022-10-21T23:51:51.990Z,16.50
2022-10-21T23:54:53.582Z,17.33
2022-10-21T23:57:57.415Z,14.33
